createdAt,value
2022-08-14T00:02:31.424Z,99444.00
2022-08-14T00:04:59.611Z,99442.00
2022-08-14T00:07:27.615Z,99441.00
2022-08-14T00:10:50.330Z,99442.00
2022-08-14T00:12:56.396Z,99439.00
2022-08-14T00:15:37.526Z,99439.00
2022-08-14T00:18:30.229Z,99436.00
2022-08-14T00:21:10.969Z,99425.00
2022-08-14T00:23:39.982Z,99428.00
2022-08-14T00:26:21.457Z,99427.00
2022-08-14T00:28:49.693Z,99420.00
2022-08-14T00:31:20.907Z,99416.00
2022-08-14T00:34:35.381Z,99414.00
2022-08-14T00:36:51.057Z,99417.00
2022-08-14T00:39:19.242Z,99413.00
2022-08-14T00:41:48.447Z,99406.00
2022-08-14T00:44:27.599Z,99411.00
2022-08-14T00:47:03.438Z,99412.00
2022-08-14T00:49:37.732Z,99411.00
2022-08-14T00:52:07.049Z,99421.00
2022-08-14T00:54:37.381Z,99416.00
2022-08-14T00:57:06.541Z,99427.00
2022-08-14T00:59:35.656Z,99431.00
2022-08-14T01:02:06.576Z,99435.00
2022-08-14T01:04:53.516Z,99433.00
2022-08-14T01:07:24.368Z,99432.00
2022-08-14T01:10:01.280Z,99431.00
2022-08-14T01:12:30.709Z,99432.00
2022-08-14T01:15:02.142Z,99434.00
2022-08-14T01:17:52.020Z,99436.00
2022-08-14T01:20:41.023Z,99427.00
2022-08-14T01:23:16.362Z,99428.00
2022-08-14T01:25:49.211Z,99428.00
2022-08-14T01:28:47.356Z,99430.00
2022-08-14T01:31:12.272Z,99418.00
2022-08-14T01:33:59.781Z,99423.00
2022-08-14T01:36:38.079Z,99421.00
2022-08-14T01:39:12.899Z,99427.00
2022-08-14T01:41:44.777Z,99417.00
2022-08-14T01:44:32.319Z,99413.00
2022-08-14T01:47:12.169Z,99413.00
2022-08-14T01:50:01.153Z,99415.00
2022-08-14T01:52:34.192Z,99422.00
2022-08-14T01:55:30.472Z,99410.00
2022-08-14T01:58:18.244Z,99406.00
2022-08-14T02:00:50.366Z,99413.00
2022-08-14T02:03:18.354Z,99402.00
2022-08-14T02:05:46.328Z,99405.00
2022-08-14T02:08:16.114Z,99399.00
2022-08-14T02:11:15.762Z,99398.00
2022-08-14T02:13:46.996Z,99402.00
2022-08-14T02:16:26.311Z,99400.00
2022-08-14T02:18:58.077Z,99397.00
2022-08-14T02:21:28.621Z,99394.00
2022-08-14T02:23:57.417Z,99393.00
2022-08-14T02:26:31.846Z,99399.00
2022-08-14T02:29:23.287Z,99390.00
2022-08-14T02:31:55.609Z,99381.00
2022-08-14T02:34:31.891Z,99385.00
2022-08-14T02:37:06.926Z,99379.00
2022-08-14T02:39:38.736Z,99394.00
2022-08-14T02:42:13.158Z,99393.00
2022-08-14T02:44:49.152Z,99379.00
2022-08-14T02:47:20.840Z,99387.00
2022-08-14T02:49:54.997Z,99385.00
2022-08-14T02:52:55.915Z,99382.00
2022-08-14T02:55:19.914Z,99385.00
2022-08-14T02:57:58.112Z,99384.00
2022-08-14T03:00:35.326Z,99388.00
2022-08-14T03:03:08.337Z,99389.00
2022-08-14T03:05:41.136Z,99382.00
2022-08-14T03:08:15.084Z,99382.00
2022-08-14T03:10:49.118Z,99386.00
2022-08-14T03:13:21.566Z,99377.00
2022-08-14T03:15:55.750Z,99375.00
2022-08-14T03:18:31.922Z,99378.00
2022-08-14T03:21:03.871Z,99380.00
2022-08-14T03:23:36.406Z,99376.00
2022-08-14T03:26:08.600Z,99371.00
2022-08-14T03:28:40.455Z,99371.00
2022-08-14T03:31:13.070Z,99377.00
2022-08-14T03:33:43.205Z,99367.00
2022-08-14T03:37:37.371Z,99377.00
2022-08-14T03:39:14.764Z,99369.00
2022-08-14T03:41:50.985Z,99376.00
2022-08-14T03:45:26.006Z,99366.00
2022-08-14T03:47:11.760Z,99364.00
2022-08-14T03:49:42.136Z,99365.00
2022-08-14T03:52:37.643Z,99360.00
2022-08-14T03:55:00.625Z,99361.00
2022-08-14T03:57:32.810Z,99359.00
2022-08-14T04:00:13.922Z,99369.00
2022-08-14T04:03:01.612Z,99358.00
2022-08-14T04:05:29.601Z,99366.00
2022-08-14T04:08:29.522Z,99360.00
2022-08-14T04:11:01.157Z,99362.00
2022-08-14T04:13:32.004Z,99365.00
2022-08-14T04:16:05.198Z,99362.00
2022-08-14T04:18:39.688Z,99353.00
2022-08-14T04:21:11.241Z,99360.00
2022-08-14T04:23:40.124Z,99351.00
2022-08-14T04:26:14.773Z,99353.00
2022-08-14T04:29:08.606Z,99359.00
2022-08-14T04:33:02.973Z,99352.00
2022-08-14T04:34:35.102Z,99344.00
2022-08-14T04:37:25.336Z,99349.00
2022-08-14T04:40:12.762Z,99349.00
2022-08-14T04:42:59.295Z,99360.00
2022-08-14T04:45:40.499Z,99353.00
2022-08-14T04:48:38.724Z,99350.00
2022-08-14T04:51:07.071Z,99352.00
2022-08-14T04:53:43.290Z,99356.00
2022-08-14T04:56:30.577Z,99357.00
2022-08-14T04:59:10.287Z,99341.00
2022-08-14T05:01:41.626Z,99331.00
2022-08-14T05:04:16.274Z,99333.00
2022-08-14T05:06:49.250Z,99327.00
2022-08-14T05:09:17.804Z,99326.00
2022-08-14T05:11:47.408Z,99318.00
2022-08-14T05:14:34.437Z,99325.00
2022-08-14T05:17:03.200Z,99329.00
2022-08-14T05:19:33.008Z,99326.00
2022-08-14T05:22:17.396Z,99335.00
2022-08-14T05:24:51.399Z,99333.00
2022-08-14T05:27:22.277Z,99335.00
2022-08-14T05:29:55.367Z,99326.00
2022-08-14T05:32:28.242Z,99320.00
2022-08-14T05:34:59.744Z,99316.00
2022-08-14T05:37:30.854Z,99323.00
2022-08-14T05:40:02.097Z,99315.00
2022-08-14T05:42:34.033Z,99312.00
2022-08-14T05:45:11.188Z,99314.00
2022-08-14T05:47:42.951Z,99299.00
2022-08-14T05:50:18.782Z,99299.00
2022-08-14T05:52:50.286Z,99300.00
2022-08-14T05:55:22.085Z,99298.00
2022-08-14T05:57:55.071Z,99304.00
2022-08-14T06:00:36.919Z,99292.00
2022-08-14T06:03:11.209Z,99297.00
2022-08-14T06:05:41.076Z,99288.00
2022-08-14T06:08:21.799Z,99297.00
2022-08-14T06:11:08.129Z,99294.00
2022-08-14T06:13:45.824Z,99288.00
2022-08-14T06:16:18.064Z,99299.00
2022-08-14T06:18:59.557Z,99280.00
2022-08-14T06:21:31.893Z,99282.00
2022-08-14T06:24:01.135Z,99281.00
2022-08-14T06:26:30.121Z,99285.00
2022-08-14T06:29:00.035Z,99283.00
2022-08-14T06:31:28.151Z,99277.00
2022-08-14T06:35:11.453Z,99274.00
2022-08-14T06:36:45.872Z,99272.00
2022-08-14T06:39:14.484Z,99264.00
2022-08-14T06:41:58.042Z,99258.00
2022-08-14T06:44:32.793Z,99250.00
2022-08-14T06:47:03.284Z,99252.00
2022-08-14T06:49:40.154Z,99254.00
2022-08-14T06:52:16.371Z,99253.00
2022-08-14T06:54:45.302Z,99261.00
2022-08-14T06:57:13.988Z,99253.00
2022-08-14T06:59:42.580Z,99243.00
2022-08-14T07:02:29.296Z,99243.00
2022-08-14T07:05:20.945Z,99242.00
2022-08-14T07:07:53.436Z,99236.00
2022-08-14T07:10:24.968Z,99233.00
2022-08-14T07:13:01.052Z,99230.00
2022-08-14T07:15:34.071Z,99233.00
2022-08-14T07:18:09.346Z,99239.00
2022-08-14T07:20:37.876Z,99235.00
2022-08-14T07:23:19.938Z,99237.00
2022-08-14T07:25:51.727Z,99240.00
2022-08-14T07:28:24.425Z,99237.00
2022-08-14T07:30:57.603Z,99230.00
2022-08-14T07:33:36.923Z,99228.00
2022-08-14T07:36:26.487Z,99233.00
2022-08-14T07:39:00.336Z,99231.00
2022-08-14T07:41:33.661Z,99227.00
2022-08-14T07:44:32.482Z,99229.00
2022-08-14T07:46:50.935Z,99234.00
2022-08-14T07:49:19.874Z,99225.00
2022-08-14T07:51:49.698Z,99238.00
2022-08-14T07:54:23.143Z,99234.00
2022-08-14T07:56:59.728Z,99235.00
2022-08-14T07:59:42.243Z,99235.00
2022-08-14T08:02:18.606Z,99225.00
2022-08-14T08:04:53.146Z,99224.00
2022-08-14T08:07:30.285Z,99230.00
2022-08-14T08:10:45.971Z,99218.00
2022-08-14T08:13:22.208Z,99218.00
2022-08-14T08:15:56.571Z,99213.00
2022-08-14T08:18:29.714Z,99209.00
2022-08-14T08:21:00.154Z,99216.00
2022-08-14T08:23:40.706Z,99205.00
2022-08-14T08:26:13.056Z,99210.00
2022-08-14T08:28:43.657Z,99209.00
2022-08-14T08:31:13.232Z,99208.00
2022-08-14T08:33:43.585Z,99212.00
2022-08-14T08:36:18.494Z,99213.00
2022-08-14T08:39:18.538Z,99209.00
2022-08-14T08:41:45.437Z,99205.00
2022-08-14T08:44:31.672Z,99197.00
2022-08-14T08:47:06.174Z,99203.00
2022-08-14T08:49:52.886Z,99204.00
2022-08-14T08:52:31.567Z,99193.00
2022-08-14T08:55:01.365Z,99196.00
2022-08-14T08:57:37.555Z,99186.00
2022-08-14T09:00:24.399Z,99189.00
2022-08-14T09:02:59.250Z,99186.00
2022-08-14T09:05:28.986Z,99173.00
2022-08-14T09:08:30.874Z,99186.00
2022-08-14T09:11:18.448Z,99179.00
2022-08-14T09:13:51.663Z,99175.00
2022-08-14T09:16:25.010Z,99172.00
2022-08-14T09:18:54.829Z,99162.00
2022-08-14T09:21:24.925Z,99166.00
2022-08-14T09:24:27.952Z,99174.00
2022-08-14T09:26:48.851Z,99162.00
2022-08-14T09:29:23.161Z,99164.00
2022-08-14T09:31:57.481Z,99161.00
2022-08-14T09:34:58.861Z,99151.00
2022-08-14T09:37:45.509Z,99155.00
2022-08-14T09:40:29.377Z,99157.00
2022-08-14T09:43:12.396Z,99149.00
2022-08-14T09:45:52.771Z,99145.00
2022-08-14T09:48:27.745Z,99145.00
2022-08-14T09:54:18.256Z,99145.00
2022-08-14T09:56:45.603Z,99143.00
2022-08-14T09:59:17.641Z,99135.00
2022-08-14T10:01:52.682Z,99125.00
2022-08-14T10:04:35.055Z,99122.00
2022-08-14T10:07:05.936Z,99122.00
2022-08-14T10:09:35.282Z,99117.00
2022-08-14T10:12:18.783Z,99103.00
2022-08-14T10:14:55.797Z,99114.00
2022-08-14T10:17:38.276Z,99118.00
2022-08-14T10:20:39.380Z,99113.00
2022-08-14T10:23:14.343Z,99102.00
2022-08-14T10:25:51.001Z,99101.00
2022-08-14T10:29:03.534Z,99100.00
2022-08-14T10:31:25.701Z,99102.00
2022-08-14T10:34:13.389Z,99085.00
2022-08-14T10:36:47.470Z,99098.00
2022-08-14T10:39:19.871Z,99089.00
2022-08-14T10:41:54.099Z,99077.00
2022-08-14T10:44:29.792Z,99088.00
2022-08-14T10:47:36.377Z,99079.00
2022-08-14T10:49:59.952Z,99078.00
2022-08-14T10:52:34.765Z,99067.00
2022-08-14T10:55:13.797Z,99081.00
2022-08-14T10:57:52.503Z,99076.00
2022-08-14T11:00:29.983Z,99067.00
2022-08-14T11:03:09.404Z,99074.00
2022-08-14T11:05:45.497Z,99078.00
2022-08-14T11:08:16.031Z,99073.00
2022-08-14T11:10:48.270Z,99050.00
2022-08-14T11:13:23.962Z,99068.00
2022-08-14T11:15:55.753Z,99057.00
2022-08-14T11:18:32.407Z,99062.00
2022-08-14T11:21:10.746Z,99063.00
2022-08-14T11:23:41.211Z,99054.00
2022-08-14T11:26:14.055Z,99059.00
2022-08-14T11:28:48.444Z,99056.00
2022-08-14T11:31:23.989Z,99055.00
2022-08-14T11:33:57.486Z,99047.00
2022-08-14T11:36:35.436Z,99038.00
2022-08-14T11:39:34.299Z,99032.00
2022-08-14T11:42:55.541Z,99022.00
2022-08-14T11:45:00.903Z,99023.00
2022-08-14T11:47:35.486Z,99023.00
2022-08-14T11:50:34.045Z,99025.00
2022-08-14T11:53:19.962Z,99011.00
2022-08-14T11:55:50.004Z,99016.00
2022-08-14T11:58:24.087Z,99010.00
2022-08-14T12:00:57.181Z,98995.00
2022-08-14T12:03:51.535Z,99003.00
2022-08-14T12:06:28.926Z,98994.00
2022-08-14T12:09:14.809Z,99001.00
2022-08-14T12:11:47.342Z,98991.00
2022-08-14T12:14:30.417Z,98985.00
2022-08-14T12:17:06.630Z,98994.00
2022-08-14T12:19:51.474Z,98980.00
2022-08-14T12:22:35.146Z,98983.00
2022-08-14T12:25:10.921Z,98981.00
2022-08-14T12:27:54.109Z,98977.00
2022-08-14T12:30:39.861Z,98981.00
2022-08-14T12:33:27.010Z,98980.00
2022-08-14T12:36:05.840Z,98971.00
2022-08-14T12:38:38.377Z,98963.00
2022-08-14T12:41:20.525Z,98960.00
2022-08-14T12:43:53.571Z,98966.00
2022-08-14T12:46:27.539Z,98957.00
2022-08-14T12:48:59.685Z,98951.00
2022-08-14T12:51:30.749Z,98951.00
2022-08-14T12:54:01.274Z,98962.00
2022-08-14T12:56:33.686Z,98948.00
2022-08-14T12:59:04.630Z,98948.00
2022-08-14T13:02:00.108Z,98944.00
2022-08-14T13:04:31.409Z,98940.00
2022-08-14T13:07:08.414Z,98937.00
2022-08-14T13:09:37.973Z,98933.00
2022-08-14T13:12:35.003Z,98945.00
2022-08-14T13:15:00.185Z,98945.00
2022-08-14T13:17:29.263Z,98941.00
2022-08-14T13:20:10.349Z,98941.00
2022-08-14T13:22:42.738Z,98928.00
2022-08-14T13:25:15.865Z,98924.00
2022-08-14T13:27:48.506Z,98917.00
2022-08-14T13:30:23.337Z,98913.00
2022-08-14T13:32:54.114Z,98924.00
2022-08-14T13:35:22.977Z,98905.00
2022-08-14T13:37:53.500Z,98902.00
2022-08-14T13:40:26.714Z,98902.00
2022-08-14T13:42:57.702Z,98900.00
2022-08-14T13:45:33.797Z,98899.00
2022-08-14T13:48:18.465Z,98898.00
2022-08-14T13:51:04.538Z,98894.00
2022-08-14T13:53:52.592Z,98898.00
2022-08-14T13:56:37.021Z,98898.00
2022-08-14T13:59:07.851Z,98890.00
2022-08-14T14:01:43.361Z,98881.00
2022-08-14T14:04:19.058Z,98875.00
2022-08-14T14:06:51.138Z,98868.00
2022-08-14T14:09:37.623Z,98859.00
2022-08-14T14:12:36.639Z,98871.00
2022-08-14T14:15:12.351Z,98862.00
2022-08-14T14:17:44.300Z,98868.00
2022-08-14T14:20:35.572Z,98848.00
2022-08-14T14:23:11.799Z,98847.00
2022-08-14T14:25:46.127Z,98844.00
2022-08-14T14:28:24.368Z,98844.00
2022-08-14T14:30:57.512Z,98859.00
2022-08-14T14:33:50.104Z,98851.00
2022-08-14T14:36:24.983Z,98841.00
2022-08-14T14:38:56.946Z,98843.00
2022-08-14T14:41:37.882Z,98843.00
2022-08-14T14:44:09.171Z,98835.00
2022-08-14T14:46:43.397Z,98841.00
2022-08-14T14:49:14.361Z,98829.00
2022-08-14T14:51:46.846Z,98831.00
2022-08-14T14:54:31.065Z,98827.00
2022-08-14T14:57:02.520Z,98827.00
2022-08-14T14:59:33.497Z,98828.00
2022-08-14T15:02:09.099Z,98821.00
2022-08-14T15:04:43.800Z,98829.00
2022-08-14T15:07:13.154Z,98828.00
2022-08-14T15:09:44.647Z,98826.00
2022-08-14T15:12:34.752Z,98825.00
2022-08-14T15:15:08.645Z,98818.00
2022-08-14T15:17:41.210Z,98809.00
2022-08-14T15:20:17.598Z,98805.00
2022-08-14T15:23:00.910Z,98813.00
2022-08-14T15:25:37.052Z,98805.00
2022-08-14T15:28:11.548Z,98806.00
2022-08-14T15:30:42.210Z,98803.00
2022-08-14T15:33:13.618Z,98803.00
2022-08-14T15:35:45.921Z,98805.00
2022-08-14T15:38:17.845Z,98809.00
2022-08-14T15:40:51.536Z,98805.00
2022-08-14T15:43:27.376Z,98800.00
2022-08-14T15:45:59.247Z,98796.00
2022-08-14T15:48:32.166Z,98795.00
2022-08-14T15:51:00.191Z,98792.00
2022-08-14T15:53:31.595Z,98781.00
2022-08-14T15:56:00.369Z,98781.00
2022-08-14T15:58:28.640Z,98784.00
2022-08-14T16:01:26.430Z,98783.00
2022-08-14T16:04:05.317Z,98793.00
2022-08-14T16:06:35.693Z,98787.00
2022-08-14T16:09:07.795Z,98785.00
2022-08-14T16:11:47.540Z,98793.00
2022-08-14T16:14:22.578Z,98787.00
2022-08-14T16:17:00.307Z,98796.00
2022-08-14T16:19:32.335Z,98784.00
2022-08-14T16:22:59.080Z,98778.00
2022-08-14T16:25:03.422Z,98777.00
2022-08-14T16:27:41.232Z,98769.00
2022-08-14T16:30:24.877Z,98768.00
2022-08-14T16:32:57.614Z,98758.00
2022-08-14T16:35:42.801Z,98758.00
2022-08-14T16:38:45.558Z,98750.00
2022-08-14T16:41:18.249Z,98753.00
2022-08-14T16:43:53.995Z,98758.00
2022-08-14T16:46:31.290Z,98754.00
2022-08-14T16:49:01.411Z,98756.00
2022-08-14T16:51:34.986Z,98749.00
2022-08-14T16:54:20.644Z,98749.00
2022-08-14T16:57:11.814Z,98759.00
2022-08-14T16:59:57.472Z,98749.00
2022-08-14T17:02:36.651Z,98745.00
2022-08-14T17:05:20.635Z,98745.00
2022-08-14T17:08:42.781Z,98748.00
2022-08-14T17:11:10.894Z,98739.00
2022-08-14T17:13:58.488Z,98739.00
2022-08-14T17:16:35.874Z,98732.00
2022-08-14T17:19:09.974Z,98727.00
2022-08-14T17:21:47.570Z,98726.00
2022-08-14T17:24:57.380Z,98723.00
2022-08-14T17:27:08.897Z,98720.00
2022-08-14T17:29:44.628Z,98717.00
2022-08-14T17:35:57.718Z,98704.00
2022-08-14T17:38:38.266Z,98701.00
2022-08-14T17:41:32.608Z,98695.00
2022-08-14T17:44:19.801Z,98700.00
2022-08-14T17:46:57.247Z,98699.00
2022-08-14T17:49:32.021Z,98689.00
2022-08-14T17:52:16.653Z,98687.00
2022-08-14T17:54:52.447Z,98690.00
2022-08-14T17:57:26.136Z,98692.00
2022-08-14T17:59:59.485Z,98696.00
2022-08-14T18:02:31.934Z,98693.00
2022-08-14T18:05:03.044Z,98694.00
2022-08-14T18:07:59.426Z,98690.00
2022-08-14T18:10:52.030Z,98699.00
2022-08-14T18:13:14.103Z,98704.00
2022-08-14T18:15:44.878Z,98704.00
2022-08-14T18:18:19.616Z,98701.00
2022-08-14T18:21:43.049Z,98703.00
2022-08-14T18:23:42.334Z,98707.00
2022-08-14T18:26:37.183Z,98701.00
2022-08-14T18:29:05.797Z,98702.00
2022-08-14T18:31:45.366Z,98709.00
2022-08-14T18:34:31.161Z,98711.00
2022-08-14T18:37:16.765Z,98717.00
2022-08-14T18:40:03.007Z,98705.00
2022-08-14T18:42:45.881Z,98712.00
2022-08-14T18:45:18.566Z,98710.00
2022-08-14T18:48:14.393Z,98714.00
2022-08-14T18:50:53.352Z,98714.00
2022-08-14T18:53:24.627Z,98712.00
2022-08-14T18:56:01.950Z,98714.00
2022-08-14T18:58:57.079Z,98713.00
2022-08-14T19:01:30.601Z,98719.00
2022-08-14T19:04:04.086Z,98711.00
2022-08-14T19:06:56.576Z,98720.00
2022-08-14T19:09:58.273Z,98717.00
2022-08-14T19:13:04.846Z,98718.00
2022-08-14T19:15:36.655Z,98729.00
2022-08-14T19:18:28.578Z,98714.00
2022-08-14T19:21:00.851Z,98722.00
2022-08-14T19:23:40.654Z,98724.00
2022-08-14T19:26:34.661Z,98730.00
2022-08-14T19:29:37.985Z,98723.00
2022-08-14T19:32:36.547Z,98717.00
2022-08-14T19:35:55.955Z,98727.00
2022-08-14T19:38:53.411Z,98728.00
2022-08-14T19:41:29.723Z,98729.00
2022-08-14T19:44:14.673Z,98724.00
2022-08-14T19:47:02.561Z,98729.00
2022-08-14T19:50:08.696Z,98732.00
2022-08-14T19:52:29.640Z,98731.00
2022-08-14T19:54:58.911Z,98732.00
2022-08-14T19:57:29.522Z,98734.00
2022-08-14T20:00:28.396Z,98737.00
2022-08-14T20:03:11.145Z,98735.00
2022-08-14T20:05:45.463Z,98735.00
2022-08-14T20:11:00.051Z,98735.00
2022-08-14T20:11:20.705Z,98731.00
2022-08-14T20:14:10.524Z,98742.00
2022-08-14T20:16:42.698Z,98738.00
2022-08-14T20:19:22.522Z,98732.00
2022-08-14T20:22:00.641Z,98733.00
2022-08-14T20:24:46.123Z,98740.00
2022-08-14T20:27:34.196Z,98727.00
2022-08-14T20:30:33.597Z,98729.00
2022-08-14T20:33:07.890Z,98718.00
2022-08-14T20:35:44.125Z,98718.00
2022-08-14T20:38:29.359Z,98715.00
2022-08-14T20:41:06.612Z,98718.00
2022-08-14T20:43:56.022Z,98713.00
2022-08-14T20:46:29.927Z,98710.00
2022-08-14T20:49:01.165Z,98711.00
2022-08-14T20:51:36.650Z,98703.00
2022-08-14T20:54:08.141Z,98707.00
2022-08-14T20:56:41.335Z,98714.00
2022-08-14T20:59:18.113Z,98722.00
2022-08-14T21:01:51.817Z,98723.00
2022-08-14T21:04:29.137Z,98715.00
2022-08-14T21:07:25.799Z,98726.00
2022-08-14T21:10:36.480Z,98721.00
2022-08-14T21:13:09.245Z,98721.00
2022-08-14T21:15:43.411Z,98720.00
2022-08-14T21:18:29.547Z,98721.00
2022-08-14T21:21:00.473Z,98715.00
2022-08-14T21:23:35.616Z,98704.00
2022-08-14T21:26:50.940Z,98706.00
2022-08-14T21:29:12.700Z,98720.00
2022-08-14T21:31:41.596Z,98708.00
2022-08-14T21:34:27.644Z,98719.00
2022-08-14T21:37:09.833Z,98709.00
2022-08-14T21:39:38.337Z,98702.00
2022-08-14T21:42:07.129Z,98700.00
2022-08-14T21:44:43.802Z,98702.00
2022-08-14T21:47:14.450Z,98699.00
2022-08-14T21:49:48.033Z,98699.00
2022-08-14T21:52:50.792Z,98698.00
2022-08-14T21:55:14.067Z,98700.00
2022-08-14T21:58:44.722Z,98708.00
2022-08-14T22:00:42.895Z,98703.00
2022-08-14T22:03:17.006Z,98700.00
2022-08-14T22:05:50.985Z,98700.00
2022-08-14T22:08:22.395Z,98701.00
2022-08-14T22:10:56.351Z,98699.00
2022-08-14T22:13:26.538Z,98701.00
2022-08-14T22:15:59.843Z,98694.00
2022-08-14T22:18:30.410Z,98696.00
2022-08-14T22:21:00.458Z,98690.00
2022-08-14T22:23:35.390Z,98691.00
2022-08-14T22:26:03.554Z,98693.00
2022-08-14T22:28:33.169Z,98683.00
2022-08-14T22:31:10.547Z,98679.00
2022-08-14T22:33:40.247Z,98680.00
2022-08-14T22:36:34.312Z,98679.00
2022-08-14T22:39:11.019Z,98675.00
2022-08-14T22:41:43.015Z,98673.00
2022-08-14T22:44:14.932Z,98667.00
2022-08-14T22:46:45.140Z,98673.00
2022-08-14T22:49:16.233Z,98673.00
2022-08-14T22:52:32.013Z,98672.00
2022-08-14T22:54:58.781Z,98668.00
2022-08-14T22:57:37.777Z,98665.00
2022-08-14T23:00:16.547Z,98660.00
2022-08-14T23:02:46.755Z,98656.00
2022-08-14T23:05:16.103Z,98657.00
2022-08-14T23:08:58.490Z,98664.00
2022-08-14T23:10:34.752Z,98664.00
2022-08-14T23:13:06.750Z,98658.00
2022-08-14T23:15:37.403Z,98654.00
2022-08-14T23:18:06.196Z,98656.00
2022-08-14T23:20:36.246Z,98644.00
2022-08-14T23:23:13.611Z,98650.00
2022-08-14T23:26:00.351Z,98646.00
2022-08-14T23:28:34.736Z,98649.00
2022-08-14T23:31:34.646Z,98652.00
2022-08-14T23:34:06.587Z,98646.00
2022-08-14T23:36:54.441Z,98635.00
2022-08-14T23:39:32.135Z,98634.00
2022-08-14T23:42:05.055Z,98638.00
2022-08-14T23:44:36.827Z,98633.00
2022-08-14T23:47:10.686Z,98639.00
2022-08-14T23:49:56.897Z,98623.00
2022-08-14T23:52:50.942Z,98614.00
2022-08-14T23:55:18.593Z,98616.00
2022-08-14T23:57:57.678Z,98619.00
